Strona główna
METAR-TAF:

METAR-TAF

Lotnisko :

Port lotniczy Norwich

Norwich, Anglia

Szerokość geograficzna: 52-38N, Długość geograficzna: 001-18E, wysokość: 14 m

Aktualna obserwacja pogody

Raport powstał 12 minut temu, godzina 08:50 UTC
Wiatr 5 kt od zachodnio-północny zachód
Temperatura 3°C
Wilgotność 93%
Ciśnienie 1042 hPa
Widzialność 10 km lub więcej
Mało chmury na wysokości 2800 ft

METAR: EGSH 190850Z 29005KT 9999 FEW028 03/02 Q1042

czas: 09:02 (09:02 UTC)

Prognoza

Raport powstał 1 godzina i 3 minut temu, godzina 07:59 UTC
Prognoza ważna od 19 godzina 09 UTC do 19 godzina 18 UTC
Wiatr 6 kt od północny zachód
Widzialność 10 km lub więcej
Mało chmury na wysokości 3000 ft

TAF: EGSH 190759Z 1909/1918 32006KT 9999 FEW030

Obserwacja i prognoza pogody dla ponad 4000 lotnisk (raport METAR i TAF).

Dostępne stacje oznaczono żółtymi i czerwonymi punktami na mapie.

Najedź kursorem aby zobaczyć nazwę stacji.

Kliknij aby zobaczyć obserwacje i prognozy pogody.

Aby zmienić mapę: kliknij na zielony przycisk z czarnym krzyżykiem, aby powiększyć; na zielony przycisk z myślnikiem, aby pomniejszyć; na zielone strzałki, aby przejść do map sąsiednich.


METAR-TAF: